Time;durP1;ratioP1;P1;durP2;ratioP2;P2;SDS_P1;SDS_P2;PMS_P1;PMS_P2;Temp;Humidity;BMP_temperature;BMP_pressure;BME280_temperature;BME280_humidity;BME280_pressure;Samples;Min_cycle;Max_cycle;Signal;HPM_P1;HPM_P2
2021/05/18 00:01:20;;;;;;;;;;;;;;;14.04;63.74;100262.13;5091092;28;20052;-87
2021/05/18 00:04:05;;;;;;;2.33;1.00;;;;;;;14.21;61.43;100252.81;5084545;28;19920;-86
2021/05/18 00:06:50;;;;;;;;;;;;;;;14.50;60.23;100260.63;5092415;28;20035;-83
2021/05/18 00:12:39;;;;;;;5.15;1.45;;;;;;;14.53;59.10;100257.97;5097025;28;20035;-87
2021/05/18 00:15:25;;;;;;;5.43;1.20;;;;;;;14.45;58.87;100264.41;5100796;28;20047;-84
2021/05/18 00:18:10;;;;;;;;;;;;;;;14.45;59.02;100258.94;5085797;28;20027;-84
2021/05/18 00:20:55;;;;;;;2.80;0.88;;;;;;;14.30;59.39;100254.22;5094969;28;19920;-87
2021/05/18 00:23:40;;;;;;;;;;;;;;;14.37;59.64;100259.94;5100375;28;20031;-84
2021/05/18 00:26:25;;;;;;;4.88;1.45;;;;;;;14.35;60.27;100253.16;5098034;28;19935;-87
2021/05/18 00:29:16;;;;;;;7.43;1.65;;;;;;;14.41;59.80;100257.28;5094543;28;20042;-86
2021/05/18 00:32:01;;;;;;;4.30;1.42;;;;;;;14.32;59.92;100268.34;5092129;28;20039;-84
2021/05/18 00:34:52;;;;;;;4.25;1.30;;;;;;;14.40;59.87;100259.22;5090517;28;20044;-86
2021/05/18 00:37:37;;;;;;;1.45;0.90;;;;;;;14.40;59.68;100258.41;5084736;28;20036;-86
2021/05/18 00:40:22;;;;;;;1.27;0.85;;;;;;;14.44;59.69;100276.50;5082237;28;20044;-87
2021/05/18 00:43:07;;;;;;;3.00;1.27;;;;;;;14.54;59.24;100286.94;5088129;28;20040;-86
2021/05/18 00:45:53;;;;;;;1.45;1.08;;;;;;;14.56;58.87;100278.38;5081270;28;20056;-85
2021/05/18 00:48:38;;;;;;;2.30;1.08;;;;;;;14.56;58.25;100289.31;5073956;28;20047;-87
2021/05/18 00:51:26;;;;;;;1.73;1.10;;;;;;;14.60;58.67;100294.88;5091839;28;20035;-85
2021/05/18 00:54:23;;;;;;;6.15;1.10;;;;;;;14.36;58.76;100291.16;5072606;28;20059;-84
2021/05/18 01:00:15;;;;;;;2.40;1.05;;;;;;;14.47;59.69;100275.03;5083055;28;20046;-83
2021/05/18 01:03:02;;;;;;;4.78;1.10;;;;;;;14.53;59.93;100285.34;5089664;28;20056;-85
2021/05/18 01:06:33;;;;;;;;;;;;;;;14.63;59.65;100289.47;5087710;28;20043;-83
2021/05/18 01:08:54;;;;;;;3.97;1.20;;;;;;;14.43;60.11;100291.31;5078366;28;20292;-85
2021/05/18 01:11:43;;;;;;;1.10;1.00;;;;;;;14.36;59.34;100274.75;5086598;28;20043;-85
2021/05/18 01:14:29;;;;;;;3.30;1.27;;;;;;;14.01;59.94;100288.22;5091924;28;20027;-85
2021/05/18 01:20:18;;;;;;;3.30;1.05;;;;;;;13.54;62.33;100307.16;5093225;28;20538;-85
2021/05/18 01:29:14;;;;;;;2.75;1.42;;;;;;;13.85;61.62;100311.19;5067860;28;20049;-87
2021/05/18 01:32:01;;;;;;;8.45;1.50;;;;;;;13.73;62.31;100303.00;5059095;28;20047;-86
2021/05/18 01:34:46;;;;;;;4.38;1.88;;;;;;;13.71;62.51;100303.38;5089215;28;20068;-80
2021/05/18 01:37:31;;;;;;;3.00;1.60;;;;;;;13.79;62.83;100298.88;5082503;28;20039;-83
2021/05/18 01:43:09;;;;;;;2.22;1.48;;;;;;;13.92;61.05;100298.50;5103876;28;20055;-81
2021/05/18 01:45:54;;;;;;;3.42;1.42;;;;;;;13.93;61.58;100299.28;5080589;28;20051;-83
2021/05/18 01:49:09;;;;;;;6.10;1.30;;;;;;;14.00;61.77;100305.78;5081941;28;20035;-81
2021/05/18 01:52:05;;;;;;;3.50;1.75;;;;;;;13.84;62.54;100315.03;5097836;28;20043;-82
2021/05/18 01:54:52;;;;;;;3.40;1.17;;;;;;;13.71;61.77;100289.72;5094691;28;20050;-81
2021/05/18 01:57:38;;;;;;;3.50;0.90;;;;;;;13.22;62.62;100305.38;5098153;28;20047;-81
2021/05/18 02:00:32;;;;;;;3.58;1.17;;;;;;;13.21;62.58;100310.03;5096203;28;20039;-81
2021/05/18 02:03:30;;;;;;;4.15;1.48;;;;;;;13.17;63.55;100317.31;5100457;28;20050;-81
2021/05/18 02:06:16;;;;;;;2.22;1.30;;;;;;;13.40;63.06;100336.78;5097362;28;20043;-79
2021/05/18 02:09:20;;;;;;;3.72;1.80;;;;;;;13.23;63.12;100312.44;5093504;28;20043;-82
2021/05/18 02:12:08;;;;;;;2.03;1.27;;;;;;;13.36;63.79;100326.88;5083375;28;20064;-83
2021/05/18 02:15:05;;;;;;;2.13;1.58;;;;;;;13.48;63.50;100338.56;5081352;28;20019;-79
2021/05/18 02:24:45;;;;;;;3.35;1.88;;;;;;;13.24;62.95;100338.59;5088028;28;20035;-79
2021/05/18 02:27:52;;;;;;;3.50;1.50;;;;;;;12.94;63.96;100334.47;5093047;28;20040;-81
2021/05/18 02:30:39;;;;;;;3.55;1.30;;;;;;;13.18;63.63;100337.22;5084910;28;20043;-81
2021/05/18 02:34:04;;;;;;;3.83;1.42;;;;;;;13.37;62.70;100348.38;5080224;28;20051;-87
2021/05/18 02:37:16;;;;;;;3.25;1.45;;;;;;;12.64;65.87;100353.75;5091791;28;20042;-89
2021/05/18 02:40:27;;;;;;;7.30;2.13;;;;;;;12.97;63.84;100350.16;5079221;28;20050;-84
2021/05/18 02:43:17;;;;;;;7.18;1.90;;;;;;;12.96;63.86;100348.56;5097466;28;20047;-81
2021/05/18 02:46:08;;;;;;;3.25;1.33;;;;;;;12.71;64.14;100336.81;5095223;28;20051;-83
2021/05/18 02:49:14;;;;;;;2.22;1.33;;;;;;;12.92;62.89;100353.09;5073466;28;20042;-85
2021/05/18 02:52:19;;;;;;;6.93;1.40;;;;;;;12.86;62.60;100339.69;5069453;28;20063;-81
2021/05/18 02:55:09;;;;;;;9.98;2.20;;;;;;;12.89;63.23;100360.06;5056657;28;20044;-80
2021/05/18 02:58:08;;;;;;;10.05;2.58;;;;;;;12.98;63.08;100352.56;5065396;28;20043;-82
2021/05/18 03:00:53;;;;;;;10.45;1.30;;;;;;;12.91;62.64;100351.50;5073342;28;20047;-83
2021/05/18 03:03:38;;;;;;;5.40;1.48;;;;;;;12.68;62.58;100354.69;5071018;28;20404;-83
2021/05/18 03:06:23;;;;;;;1.77;0.95;;;;;;;12.73;62.71;100356.38;5059645;28;20047;-82
2021/05/18 03:09:12;;;;;;;28.33;4.90;;;;;;;13.32;67.45;100356.00;5072522;28;20044;-84
2021/05/18 03:11:58;;;;;;;6.13;1.60;;;;;;;14.61;63.13;100353.94;5075859;28;20040;-83
2021/05/18 03:14:42;;;;;;;0.93;0.63;;;;;;;15.27;61.21;100348.56;5074317;28;20063;-83
2021/05/18 03:17:47;;;;;;;3.45;1.30;;;;;;;15.60;59.80;100340.75;5070906;28;20060;-84
2021/05/18 03:20:32;;;;;;;5.95;1.23;;;;;;;15.82;58.64;100351.03;5072459;28;20051;-82
2021/05/18 03:23:17;;;;;;;1.80;1.00;;;;;;;15.92;58.03;100344.19;5074519;28;20052;-84
2021/05/18 03:26:02;;;;;;;3.65;1.20;;;;;;;16.05;57.44;100362.06;5071161;28;20115;-83
2021/05/18 03:28:48;;;;;;;;;;;;;;;16.14;56.93;100351.69;5071148;28;20048;-83
2021/05/18 03:34:38;;;;;;;5.10;1.20;;;;;;;16.24;56.45;100361.28;5070771;28;20040;-82
2021/05/18 03:37:35;;;;;;;4.65;1.30;;;;;;;16.29;55.66;100366.50;5073274;28;20053;-83
2021/05/18 03:40:22;;;;;;;4.50;0.90;;;;;;;16.41;55.55;100371.00;5074808;28;20420;-84
2021/05/18 03:43:19;;;;;;;4.05;1.50;;;;;;;16.41;55.30;100365.53;5061295;28;20043;-83
2021/05/18 03:52:29;;;;;;;2.50;1.00;;;;;;;16.49;54.54;100361.78;5076329;28;20040;-84
2021/05/18 04:04:54;;;;;;;3.45;0.93;;;;;;;16.44;54.00;100360.13;5030917;28;20040;-83
2021/05/18 04:16:57;;;;;;;5.82;1.13;;;;;;;16.52;53.74;100366.53;5079663;28;20502;-83
2021/05/18 04:19:50;;;;;;;2.35;1.02;;;;;;;16.52;54.06;100374.75;5072961;28;20511;-84
2021/05/18 04:59:44;;;;;;;9.98;3.03;;;;;;;14.53;60.27;100460.44;5077134;28;20040;-84
2021/05/18 05:17:17;;;;;;;5.00;1.20;;;;;;;15.15;60.11;100469.97;5073145;28;20043;-85
2021/05/18 05:20:02;;;;;;;7.90;1.55;;;;;;;15.82;59.20;100466.19;5072181;28;20044;-83
2021/05/18 05:22:47;;;;;;;9.63;1.30;;;;;;;16.21;57.96;100471.75;5070263;28;20523;-78
2021/05/18 05:25:32;;;;;;;6.90;1.40;;;;;;;16.44;56.88;100475.41;5076667;28;20071;-82
2021/05/18 05:28:19;;;;;;;10.98;1.38;;;;;;;16.52;55.85;100459.84;5076911;28;20047;-83
2021/05/18 05:31:23;;;;;;;10.73;2.28;;;;;;;16.67;56.03;100459.00;5079216;28;20036;-82
2021/05/18 05:34:08;;;;;;;7.57;1.83;;;;;;;16.63;55.79;100464.44;5079807;28;20028;-82
2021/05/18 05:36:54;;;;;;;8.73;2.70;;;;;;;16.73;55.31;100473.25;5071408;28;20047;-80
2021/05/18 05:39:57;;;;;;;4.80;1.52;;;;;;;16.84;55.55;100472.31;5071574;28;20047;-81
2021/05/18 05:42:42;;;;;;;5.68;1.95;;;;;;;16.90;55.50;100478.31;5072707;28;20047;-80
2021/05/18 05:45:49;;;;;;;9.93;1.50;;;;;;;16.96;54.95;100474.91;5075569;28;20071;-83
2021/05/18 05:48:53;;;;;;;4.45;1.30;;;;;;;17.01;55.07;100471.88;5071917;28;20040;-81
2021/05/18 05:51:38;;;;;;;5.43;1.50;;;;;;;17.05;54.63;100475.47;5074797;28;20055;-82
2021/05/18 05:54:23;;;;;;;7.93;1.77;;;;;;;16.99;53.98;100487.91;5071447;28;20047;-82
2021/05/18 05:57:08;;;;;;;6.47;2.42;;;;;;;16.88;54.49;100484.16;5076537;28;20035;-83
2021/05/18 06:00:13;;;;;;;6.60;2.03;;;;;;;16.97;54.18;100492.97;5064282;22;20044;-77
2021/05/18 06:02:58;;;;;;;5.97;1.75;;;;;;;16.82;54.52;100490.28;5030590;28;20053;-77
2021/05/18 06:05:42;;;;;;;;;;;;;;;16.87;53.99;100490.81;5037323;28;20064;-77
2021/05/18 06:08:28;;;;;;;8.80;2.10;;;;;;;16.73;53.48;100492.47;5033332;28;19913;-77
2021/05/18 06:11:18;;;;;;;;;;;;;;;16.78;53.97;100482.00;5012626;28;20280;-77
2021/05/18 06:14:49;;;;;;;7.75;2.00;;;;;;;17.02;53.50;100484.41;5010721;28;19913;-77
2021/05/18 06:48:15;;;;;;;12.25;3.28;;;;;;;17.48;52.40;100495.44;5013350;28;20053;-77
2021/05/18 06:51:19;;;;;;;7.72;2.20;;;;;;;17.54;52.05;100515.97;5011070;28;20052;-77
2021/05/18 06:54:04;;;;;;;8.48;1.63;;;;;;;17.62;52.06;100523.25;5014331;28;20045;-77
2021/05/18 06:56:53;;;;;;;21.08;3.33;;;;;;;17.63;51.98;100524.81;5012322;28;20037;-78
2021/05/18 07:00:13;;;;;;;15.10;2.45;;;;;;;17.73;52.05;100539.88;5010838;28;20053;-77
2021/05/18 07:03:21;;;;;;;14.35;4.40;;;;;;;17.76;51.14;100545.47;5012827;28;20046;-77
2021/05/18 07:08:55;;;;;;;8.52;2.38;;;;;;;17.80;51.50;100543.56;5013816;28;20049;-77
2021/05/18 07:11:40;;;;;;;14.45;2.90;;;;;;;17.89;51.56;100538.59;5010197;28;20045;-77
2021/05/18 07:14:25;;;;;;;;;;;;;;;17.91;51.66;100541.00;5019133;28;20041;-77
2021/05/18 07:17:09;;;;;;;19.80;2.78;;;;;;;17.97;51.30;100549.72;5017615;28;19913;-77
2021/05/18 07:20:13;;;;;;;19.10;3.20;;;;;;;18.17;51.30;100542.97;5012421;28;20744;-77
2021/05/18 07:23:04;;;;;;;4.15;2.33;;;;;;;18.19;51.18;100546.13;5017219;28;20049;-77
2021/05/18 07:25:50;;;;;;;7.60;2.20;;;;;;;18.19;51.49;100535.13;5015921;28;20061;-77
2021/05/18 07:28:36;;;;;;;8.65;1.90;;;;;;;18.31;51.37;100543.97;5018125;28;20430;-77
2021/05/18 07:31:20;;;;;;;;;;;;;;;18.34;51.13;100531.41;5019354;28;20521;-77
2021/05/18 07:34:05;;;;;;;11.00;2.87;;;;;;;18.40;50.99;100529.91;5016945;28;19917;-77
2021/05/18 07:36:50;;;;;;;8.27;2.38;;;;;;;18.27;50.99;100520.31;5020485;28;20281;-77
2021/05/18 07:39:54;;;;;;;;;;;;;;;18.47;50.69;100530.03;5018345;28;20061;-77
2021/05/18 07:42:39;;;;;;;5.10;1.83;;;;;;;18.59;50.55;100523.53;5016945;28;19913;-77
2021/05/18 07:45:28;;;;;;;;;;;;;;;18.51;50.53;100524.56;5019893;28;20045;-78
2021/05/18 07:48:25;;;;;;;6.18;2.05;;;;;;;18.51;50.50;100517.09;5014970;28;19913;-77
2021/05/18 07:51:30;;;;;;;10.10;2.22;;;;;;;18.49;51.30;100511.16;5011301;28;20045;-78
2021/05/18 08:07:01;;;;;;;8.63;2.10;;;;;;;18.85;49.96;100497.84;5018899;28;20049;-79
2021/05/18 08:10:42;;;;;;;5.88;1.75;;;;;;;18.91;50.21;100496.34;5025947;28;20876;-79
2021/05/18 08:12:54;;;;;;;12.73;2.40;;;;;;;18.96;49.59;100496.03;5013829;28;20418;-78
2021/05/18 10:38:04;;;;;;;8.98;3.33;;;;;;;21.12;43.75;100465.16;5014756;28;19913;-81
2021/05/18 10:40:52;;;;;;;6.68;3.42;;;;;;;21.15;43.59;100458.84;5015977;28;20052;-82
2021/05/18 10:44:15;;;;;;;6.20;3.00;;;;;;;20.61;45.14;100456.31;5016090;28;20417;-81
2021/05/18 10:47:02;;;;;;;3.85;2.13;;;;;;;20.72;45.02;100452.41;5020156;28;20053;-80
2021/05/18 10:49:53;;;;;;;12.27;3.38;;;;;;;20.87;44.50;100450.47;5018987;28;20053;-81
2021/05/18 10:52:39;;;;;;;5.35;2.42;;;;;;;20.65;44.89;100429.47;5022637;28;20034;-81
2021/05/18 10:55:24;;;;;;;3.55;2.60;;;;;;;20.79;44.75;100435.84;5022404;28;20509;-80
2021/05/18 10:58:18;;;;;;;6.82;3.78;;;;;;;21.05;43.79;100429.19;5020714;28;20045;-81
2021/05/18 11:01:04;;;;;;;7.55;2.70;;;;;;;21.11;42.98;100426.81;5023656;28;20048;-80
2021/05/18 11:03:49;;;;;;;5.90;3.15;;;;;;;21.48;42.21;100426.47;5020000;28;20040;-80
2021/05/18 11:06:55;;;;;;;5.15;3.20;;;;;;;21.44;42.29;100420.13;5018429;28;20406;-80
2021/05/18 11:09:42;;;;;;;5.80;2.90;;;;;;;21.37;42.69;100420.16;5021237;28;20045;-80
2021/05/18 11:12:27;;;;;;;4.90;2.70;;;;;;;21.32;43.10;100429.63;5017900;28;20061;-80
2021/05/18 11:15:20;;;;;;;5.15;2.83;;;;;;;21.30;42.99;100416.19;5014358;28;20053;-80
2021/05/18 11:18:23;;;;;;;5.07;2.67;;;;;;;21.85;42.01;100429.56;5021434;28;20045;-80
2021/05/18 11:21:11;;;;;;;4.90;3.58;;;;;;;21.93;41.49;100422.06;5021350;28;20053;-79
2021/05/18 11:24:15;;;;;;;6.82;3.42;;;;;;;21.83;40.80;100431.97;5011320;28;20054;-80
2021/05/18 11:27:00;;;;;;;;;;;;;;;21.62;41.56;100421.72;5015429;28;20065;-79
2021/05/18 11:29:44;;;;;;;6.13;2.63;;;;;;;21.22;42.53;100411.84;5014599;28;20302;-80
2021/05/18 11:32:30;;;;;;;5.32;2.72;;;;;;;21.34;43.24;100402.34;5017513;28;20065;-79
2021/05/18 11:35:14;;;;;;;;;;;;;;;21.51;42.45;100403.53;5016913;28;20041;-79
2021/05/18 11:38:05;;;;;;;6.05;3.15;;;;;;;21.73;42.11;100399.56;5012551;28;19913;-78
2021/05/18 11:40:51;;;;;;;9.75;3.33;;;;;;;21.94;41.56;100393.97;5010782;28;20045;-78
2021/05/18 11:43:39;;;;;;;10.02;3.17;;;;;;;21.81;41.41;100398.34;5012656;28;20045;-78
2021/05/18 11:46:25;;;;;;;6.15;3.35;;;;;;;21.90;40.07;100386.84;5008614;28;20045;-78
2021/05/18 11:49:29;;;;;;;;;;;;;;;22.14;41.55;100392.38;5011010;28;20413;-77
2021/05/18 11:52:13;;;;;;;7.30;3.33;;;;;;;22.11;40.87;100390.38;5012708;28;19913;-77
2021/05/18 11:54:58;;;;;;;5.15;3.03;;;;;;;21.99;40.97;100376.97;5011167;28;20048;-78
2021/05/18 11:57:43;;;;;;;7.90;3.78;;;;;;;22.38;39.93;100378.78;5004762;28;20045;-78
2021/05/18 12:00:33;;;;;;;4.85;3.55;;;;;;;22.28;40.44;100380.44;5059018;22;20505;-78
2021/05/18 12:03:18;;;;;;;3.80;2.85;;;;;;;21.83;41.60;100376.59;5054414;28;20039;-78
2021/05/18 12:06:06;;;;;;;4.25;2.25;;;;;;;21.56;42.36;100373.50;5056878;28;20063;-79
2021/05/18 12:08:56;;;;;;;5.75;2.45;;;;;;;21.73;40.80;100355.28;5055757;28;20047;-80
2021/05/18 12:11:41;;;;;;;7.95;3.05;;;;;;;21.36;42.79;100358.50;5034811;28;20061;-79
2021/05/18 12:14:27;;;;;;;3.22;1.80;;;;;;;21.12;43.28;100348.22;5038486;28;20040;-78
2021/05/18 12:17:13;;;;;;;12.65;2.60;;;;;;;21.37;42.59;100364.81;5036020;28;20040;-79
2021/05/18 12:20:00;;;;;;;6.10;2.38;;;;;;;21.43;42.13;100363.25;5031152;28;20048;-77
2021/05/18 12:26:17;;;;;;;10.85;4.35;;;;;;;22.16;39.59;100364.25;5025496;28;20109;-77
2021/05/18 12:29:04;;;;;;;6.45;3.28;;;;;;;22.40;37.79;100338.38;5037985;28;20029;-79
2021/05/18 12:31:49;;;;;;;5.78;2.53;;;;;;;22.24;39.82;100334.53;5045518;28;20068;-79
2021/05/18 12:34:34;;;;;;;8.30;3.85;;;;;;;22.14;40.08;100325.88;5046839;28;20064;-80
2021/05/18 12:37:34;;;;;;;11.18;3.42;;;;;;;22.00;40.06;100314.06;5035346;28;20044;-79
2021/05/18 12:40:29;;;;;;;4.95;2.65;;;;;;;21.98;40.61;100325.56;5035418;28;20419;-78
2021/05/18 12:43:22;;;;;;;6.10;2.92;;;;;;;22.09;39.57;100326.31;5038123;28;20397;-79
2021/05/18 12:46:07;;;;;;;8.63;2.70;;;;;;;22.53;37.99;100308.25;5036863;28;20512;-81
2021/05/18 12:48:52;;;;;;;6.03;3.15;;;;;;;22.39;38.50;100316.66;5030949;28;20044;-77
2021/05/18 12:51:38;;;;;;;12.90;2.55;;;;;;;22.29;38.66;100314.72;5035243;28;20045;-78
2021/05/18 12:54:23;;;;;;;;;;;;;;;22.33;38.38;100315.50;5037351;28;20037;-78
2021/05/18 12:57:28;;;;;;;7.50;2.63;;;;;;;22.23;37.80;100310.81;5031173;28;19913;-79
2021/05/18 13:00:33;;;;;;;3.58;2.53;;;;;;;22.54;36.30;100309.81;5032305;28;20044;-79
2021/05/18 13:03:21;;;;;;;9.30;2.22;;;;;;;22.72;34.51;100310.50;5034277;28;20052;-80
2021/05/18 13:06:06;;;;;;;2.70;2.05;;;;;;;22.73;35.77;100312.09;5036351;28;20060;-80
2021/05/18 13:08:52;;;;;;;5.97;1.95;;;;;;;22.46;36.97;100303.53;5046681;28;20516;-80
2021/05/18 13:14:24;;;;;;;5.00;1.75;;;;;;;22.05;38.75;100289.50;5055335;28;20056;-83
2021/05/18 13:17:11;;;;;;;6.20;2.53;;;;;;;22.27;36.88;100286.63;5040043;28;20044;-81
2021/05/18 13:20:14;;;;;;;3.42;1.55;;;;;;;22.16;37.87;100276.41;5030880;28;20049;-80
2021/05/18 13:23:01;;;;;;;3.70;1.40;;;;;;;22.11;38.03;100276.81;5032756;28;20045;-81
2021/05/18 13:28:57;;;;;;;7.05;1.38;;;;;;;22.30;37.28;100267.22;5034490;28;20052;-81
2021/05/18 13:32:00;;;;;;;3.13;1.73;;;;;;;22.20;36.99;100261.75;5036591;28;20057;-80
2021/05/18 13:34:45;;;;;;;2.83;1.17;;;;;;;22.18;37.36;100254.63;5028739;28;20040;-79
2021/05/18 13:37:30;;;;;;;2.65;1.30;;;;;;;22.20;37.13;100248.66;5037604;28;20048;-80
2021/05/18 13:40:18;;;;;;;4.32;1.50;;;;;;;22.32;36.12;100252.97;5033867;28;20044;-81
2021/05/18 13:43:04;;;;;;;19.23;2.58;;;;;;;22.27;34.61;100251.41;5037275;28;20063;-80
2021/05/18 13:46:08;;;;;;;5.18;1.35;;;;;;;22.48;35.04;100258.78;5029317;28;20041;-78
2021/05/18 13:48:52;;;;;;;5.70;1.65;;;;;;;22.12;36.12;100258.22;5037826;28;20045;-79
2021/05/18 13:51:38;;;;;;;5.53;1.30;;;;;;;21.88;36.43;100257.16;5033925;28;20068;-79
2021/05/18 13:54:23;;;;;;;3.97;1.85;;;;;;;22.30;35.18;100263.69;5035816;28;20044;-79
2021/05/18 13:57:08;;;;;;;3.65;1.63;;;;;;;22.15;36.26;100255.44;5036855;28;20037;-79
2021/05/18 13:59:54;;;;;;;5.22;1.95;;;;;;;22.41;33.19;100256.84;5034415;28;20048;-81
2021/05/18 14:02:41;;;;;;;2.58;1.20;;;;;;;22.11;35.51;100257.44;5034298;28;20544;-78
2021/05/18 14:05:28;;;;;;;3.40;1.45;;;;;;;22.11;35.47;100257.44;5033368;28;20524;-79
2021/05/18 14:11:08;;;;;;;4.78;1.38;;;;;;;22.25;34.56;100248.25;5034217;28;20525;-81
2021/05/18 14:13:54;;;;;;;8.15;1.70;;;;;;;22.10;35.28;100241.22;5036187;28;20060;-81
2021/05/18 14:16:39;;;;;;;5.10;1.50;;;;;;;22.07;35.93;100242.81;5029390;28;20053;-78
2021/05/18 14:19:24;;;;;;;4.20;1.92;;;;;;;22.43;31.94;100231.50;5034422;28;20040;-79
2021/05/18 14:22:29;;;;;;;2.38;1.50;;;;;;;22.47;32.97;100226.72;5032802;28;20527;-79
2021/05/18 14:25:32;;;;;;;5.07;1.65;;;;;;;22.30;33.85;100228.41;5036405;28;20056;-81
2021/05/18 14:28:18;;;;;;;9.35;1.88;;;;;;;22.23;32.65;100217.41;5034443;28;20041;-79
2021/05/18 14:31:09;;;;;;;4.72;2.33;;;;;;;22.37;32.66;100211.75;5032157;28;20045;-79
2021/05/18 14:33:54;;;;;;;6.05;2.25;;;;;;;22.26;33.51;100199.16;5037500;28;20056;-79
2021/05/18 14:36:39;;;;;;;4.70;1.95;;;;;;;22.14;33.88;100206.78;5033653;28;20433;-81
2021/05/18 14:40:05;;;;;;;10.02;1.90;;;;;;;22.24;34.23;100201.56;5033888;28;20508;-81
2021/05/18 14:45:38;;;;;;;4.80;2.17;;;;;;;21.96;34.59;100188.69;5028027;28;20409;-79
2021/05/18 14:57:20;;;;;;;6.82;4.25;;;;;;;22.65;29.38;100165.63;5033234;28;19913;-79
2021/05/18 15:00:05;;;;;;;8.13;3.90;;;;;;;22.56;28.83;100168.84;5032782;28;20044;-80
2021/05/18 15:03:10;;;;;;;5.50;2.67;;;;;;;21.81;33.93;100163.03;5036128;28;20064;-79
2021/05/18 15:05:54;;;;;;;6.43;3.15;;;;;;;21.73;32.81;100144.91;5034647;28;20036;-80
2021/05/18 15:08:39;;;;;;;8.38;3.75;;;;;;;22.25;32.27;100131.13;5029924;28;20041;-77
2021/05/18 15:11:25;;;;;;;9.30;5.10;;;;;;;22.37;32.05;100127.84;5031706;28;20052;-80
2021/05/18 15:17:14;;;;;;;10.23;6.03;;;;;;;22.78;29.72;100134.22;5024822;28;20033;-80
2021/05/18 15:20:18;;;;;;;25.17;6.30;;;;;;;22.75;29.15;100140.59;5031695;28;20041;-81
2021/05/18 15:23:03;;;;;;;8.93;5.25;;;;;;;22.50;29.60;100149.09;5032585;28;20040;-83
2021/05/18 15:25:48;;;;;;;9.18;5.07;;;;;;;22.35;30.80;100153.19;5034443;28;20064;-82
2021/05/18 15:28:33;;;;;;;9.98;4.40;;;;;;;22.16;31.65;100149.00;5033382;28;20045;-81
2021/05/18 15:31:18;;;;;;;7.38;3.78;;;;;;;21.89;32.77;100134.09;5028429;28;20413;-80
2021/05/18 15:34:23;;;;;;;11.10;4.75;;;;;;;22.09;29.74;100132.44;5034913;28;20048;-81
2021/05/18 15:37:09;;;;;;;9.10;5.10;;;;;;;22.24;29.37;100127.56;5037942;28;20037;-80
2021/05/18 15:39:53;;;;;;;9.55;4.82;;;;;;;22.35;29.75;100125.47;5031848;28;20052;-80
2021/05/18 15:42:40;;;;;;;11.32;5.25;;;;;;;22.37;30.05;100122.31;5035925;28;20048;-83
2021/05/18 15:45:25;;;;;;;8.10;4.90;;;;;;;22.25;30.62;100120.81;5037870;28;20029;-82
2021/05/18 15:48:10;;;;;;;14.38;5.90;;;;;;;22.17;29.81;100124.84;5041502;28;20061;-82
2021/05/18 15:50:55;;;;;;;11.93;5.60;;;;;;;22.08;30.51;100128.09;5034812;28;20041;-81
2021/05/18 15:53:58;;;;;;;7.88;4.85;;;;;;;22.06;31.27;100130.47;5034639;28;20037;-80
2021/05/18 15:56:44;;;;;;;9.32;4.85;;;;;;;21.97;30.27;100132.91;5032700;28;20047;-80
2021/05/18 15:59:29;;;;;;;12.40;5.63;;;;;;;21.80;31.32;100139.31;5034111;28;20052;-80
2021/05/18 16:02:51;;;;;;;10.32;5.32;;;;;;;21.74;32.29;100141.72;5033134;28;20033;-80
2021/05/18 16:05:36;;;;;;;7.10;4.28;;;;;;;21.68;32.35;100132.28;5038426;28;20041;-81
2021/05/18 16:11:14;;;;;;;16.23;4.95;;;;;;;21.55;32.59;100144.22;5034493;28;20422;-81
2021/05/18 16:13:59;;;;;;;7.90;4.32;;;;;;;21.58;32.35;100143.41;5035019;28;20048;-83
2021/05/18 16:17:02;;;;;;;6.18;3.25;;;;;;;21.43;32.82;100142.69;5043305;28;20102;-81
2021/05/18 16:19:48;;;;;;;9.85;3.60;;;;;;;21.37;33.87;100149.06;5035140;28;20515;-78
2021/05/18 16:22:33;;;;;;;44.58;9.65;;;;;;;21.27;34.60;100148.69;5038318;28;20049;-80
2021/05/18 16:25:37;;;;;;;88.78;12.95;;;;;;;21.21;34.91;100141.22;5035679;28;20505;-78
2021/05/18 16:28:23;;;;;;;38.30;9.15;;;;;;;21.12;34.71;100143.59;5052631;28;20041;-79
2021/05/18 16:31:09;;;;;;;36.47;8.50;;;;;;;21.01;35.74;100143.63;5027795;28;20037;-80
2021/05/18 16:33:55;;;;;;;27.35;6.72;;;;;;;20.90;35.84;100157.47;5056975;28;20045;-80
2021/05/18 16:36:40;;;;;;;23.92;5.20;;;;;;;20.88;36.08;100150.75;5038224;28;20040;-79
2021/05/18 16:39:26;;;;;;;13.05;4.57;;;;;;;20.68;36.50;100153.16;5030418;28;20030;-79
2021/05/18 16:42:11;;;;;;;9.85;3.83;;;;;;;20.42;37.14;100139.75;5029079;28;20056;-80
2021/05/18 16:47:59;;;;;;;7.15;3.50;;;;;;;20.43;37.35;100141.34;5035361;28;20033;-80
2021/05/18 16:50:46;;;;;;;9.55;3.85;;;;;;;20.51;37.17;100136.63;5034833;28;20053;-79
2021/05/18 16:53:32;;;;;;;7.68;3.38;;;;;;;20.59;37.25;100138.16;5036881;28;20049;-78
2021/05/18 16:56:17;;;;;;;8.73;3.60;;;;;;;20.62;37.16;100127.09;5034010;28;20048;-80
2021/05/18 16:59:04;;;;;;;6.88;2.78;;;;;;;20.66;37.29;100127.91;5032608;28;20060;-78
2021/05/18 17:02:08;;;;;;;5.43;2.70;;;;;;;20.66;37.52;100135.41;5032724;28;20049;-79
2021/05/18 17:05:12;;;;;;;8.18;3.00;;;;;;;20.41;38.21;100130.72;5033945;28;20056;-79
2021/05/18 17:08:03;;;;;;;7.60;3.92;;;;;;;20.16;39.33;100121.63;5037422;28;20041;-80
2021/05/18 17:11:25;;;;;;;8.48;3.72;;;;;;;20.20;38.83;100122.41;5032149;28;20052;-78
2021/05/18 17:14:29;;;;;;;6.28;2.55;;;;;;;20.22;39.00;100120.00;5038353;28;20037;-77
2021/05/18 17:17:15;;;;;;;9.77;2.78;;;;;;;20.06;39.55;100133.44;5035330;28;20040;-78
2021/05/18 17:20:00;;;;;;;8.45;2.17;;;;;;;20.01;40.33;100142.13;5029392;28;20044;-77
2021/05/18 17:22:45;;;;;;;8.07;2.03;;;;;;;19.88;40.41;100151.94;5035503;28;20052;-78
2021/05/18 17:25:31;;;;;;;5.43;1.40;;;;;;;19.89;40.65;100159.81;5036507;28;20405;-78
2021/05/18 17:28:16;;;;;;;6.57;2.35;;;;;;;19.80;40.76;100158.63;5032580;28;20509;-77
2021/05/18 17:31:01;;;;;;;6.07;1.60;;;;;;;19.75;40.99;100156.25;5032025;28;20547;-79
2021/05/18 17:33:46;;;;;;;5.50;1.50;;;;;;;19.76;41.04;100164.13;5035065;28;20064;-80
2021/05/18 17:36:31;;;;;;;3.40;1.30;;;;;;;19.71;41.41;100158.97;5034586;28;20039;-79
2021/05/18 17:39:17;;;;;;;;;;;;;;;19.63;41.36;100157.41;5033305;28;20092;-80
2021/05/18 17:42:02;;;;;;;5.95;1.30;;;;;;;19.56;41.57;100155.41;5035099;28;19921;-79
2021/05/18 17:44:47;;;;;;;5.68;1.30;;;;;;;19.63;41.30;100147.16;5033768;28;20044;-76
2021/05/18 17:47:34;;;;;;;16.50;1.67;;;;;;;19.79;42.06;100154.28;5036882;28;20040;-76
2021/05/18 17:50:37;;;;;;;4.97;1.02;;;;;;;19.81;41.96;100149.94;5035730;28;20046;-78
2021/05/18 17:53:22;;;;;;;12.02;2.03;;;;;;;19.80;43.83;100155.88;5026096;28;20417;-76
2021/05/18 17:56:07;;;;;;;;;;;;;;;19.83;45.50;100164.16;5037762;28;20052;-80
2021/05/18 17:58:52;;;;;;;114.80;18.57;;;;;;;19.78;45.92;100158.22;5026537;28;20289;-78
2021/05/18 18:01:55;;;;;;;54.20;8.18;;;;;;;19.74;45.68;100160.19;5080349;22;20345;-82
2021/05/18 18:04:41;;;;;;;30.85;4.72;;;;;;;19.62;44.89;100153.84;5070855;28;20041;-81
2021/05/18 18:07:25;;;;;;;;;;;;;;;19.54;44.05;100151.47;5092606;28;20048;-82
2021/05/18 18:10:30;;;;;;;20.88;3.40;;;;;;;19.48;43.15;100144.75;5084473;28;19916;-81
2021/05/18 18:13:34;;;;;;;6.03;1.67;;;;;;;19.47;43.52;100143.16;5082397;28;20047;-83
2021/05/18 18:16:38;;;;;;;6.25;1.17;;;;;;;19.48;43.18;100148.28;5080894;28;20540;-80
2021/05/18 18:19:23;;;;;;;8.20;1.73;;;;;;;19.39;44.22;100139.56;5083402;28;20515;-81
2021/05/18 18:22:27;;;;;;;12.15;1.15;;;;;;;19.31;44.50;100135.19;5087542;28;20051;-81
2021/05/18 18:25:12;;;;;;;14.05;1.33;;;;;;;19.35;44.77;100155.28;5082986;28;20051;-80
2021/05/18 18:27:57;;;;;;;6.18;1.65;;;;;;;19.35;44.72;100158.03;5089845;28;20048;-81
2021/05/18 18:30:42;;;;;;;6.63;1.38;;;;;;;19.25;42.52;100150.50;5084989;28;20055;-86
2021/05/18 18:33:27;;;;;;;;;;;;;;;19.14;41.71;100149.69;5086560;28;20055;-86
2021/05/18 18:36:12;;;;;;;10.40;1.00;;;;;;;18.97;43.18;100150.38;5085245;28;19917;-85
2021/05/18 18:39:47;;;;;;;20.92;2.03;;;;;;;18.93;41.42;100160.59;4981199;28;20044;-85
2021/05/18 18:55:33;;;;;;;6.57;1.63;;;;;;;18.84;41.35;100144.44;4313138;28;21277;-76
2021/05/18 18:59:43;;;;;;;10.63;1.90;;;;;;;18.83;41.49;100140.09;4400139;23;20432;-79